createdAt,value
2023-04-07T00:00:41.872Z,3.03
2023-04-07T00:06:45.387Z,3.30
2023-04-07T00:12:50.144Z,3.30
2023-04-07T00:18:53.780Z,3.60
2023-04-07T00:24:57.218Z,2.90
2023-04-07T00:31:02.343Z,3.58
2023-04-07T00:37:06.504Z,3.70
2023-04-07T00:43:09.871Z,3.85
2023-04-07T00:49:14.736Z,3.80
2023-04-07T00:55:18.159Z,4.70
2023-04-07T01:01:24.725Z,5.07
2023-04-07T01:07:34.740Z,4.07
2023-04-07T01:13:38.949Z,3.83
2023-04-07T01:19:45.234Z,3.83
2023-04-07T01:26:02.565Z,2.50
2023-04-07T01:32:08.478Z,2.78
2023-04-07T01:38:12.920Z,2.33
2023-04-07T01:44:16.991Z,2.25
2023-04-07T01:50:22.997Z,2.10
2023-04-07T01:56:26.463Z,2.47
2023-04-07T02:02:30.519Z,3.20
2023-04-07T02:08:35.554Z,2.95
2023-04-07T02:14:39.601Z,3.20
2023-04-07T02:20:44.523Z,3.45
2023-04-07T02:26:49.338Z,3.90
2023-04-07T02:32:52.827Z,4.32
2023-04-07T02:38:56.848Z,4.13
2023-04-07T02:45:02.049Z,4.97
2023-04-07T02:51:05.463Z,5.88
2023-04-07T02:57:08.866Z,6.68
2023-04-07T03:03:14.308Z,7.38
2023-04-07T03:09:18.180Z,7.22
2023-04-07T03:15:21.591Z,8.70
2023-04-07T03:21:26.649Z,9.27
2023-04-07T03:27:30.031Z,9.73
2023-04-07T03:33:33.518Z,9.32
2023-04-07T03:39:39.428Z,8.88
2023-04-07T03:45:42.966Z,9.60
2023-04-07T03:51:46.661Z,9.10
2023-04-07T03:57:51.767Z,10.13
2023-04-07T04:03:55.341Z,9.10
2023-04-07T04:09:59.247Z,8.77
2023-04-07T04:16:04.176Z,9.38
2023-04-07T04:22:07.749Z,8.45
2023-04-07T04:28:11.596Z,8.27
2023-04-07T04:34:16.410Z,8.10
2023-04-07T04:40:19.998Z,8.25
2023-04-07T04:46:23.537Z,7.43
2023-04-07T04:52:28.869Z,7.90
2023-04-07T04:58:32.435Z,6.47
2023-04-07T05:04:36.818Z,6.47
2023-04-07T05:10:42.081Z,10.95
2023-04-07T05:16:45.448Z,6.00
2023-04-07T05:22:49.017Z,6.00
2023-04-07T05:28:53.911Z,6.25
2023-04-07T05:34:57.574Z,6.18
2023-04-07T05:41:01.353Z,5.65
2023-04-07T05:47:09.108Z,5.90
2023-04-07T05:53:12.657Z,4.70
2023-04-07T05:59:16.039Z,4.78
2023-04-07T06:05:21.076Z,5.00
2023-04-07T06:11:24.634Z,4.97
2023-04-07T06:17:28.049Z,4.90
2023-04-07T06:23:32.854Z,5.38
2023-04-07T06:29:36.740Z,5.90
2023-04-07T06:35:41.388Z,6.03
2023-04-07T06:41:47.081Z,5.65
2023-04-07T06:47:50.664Z,5.95
2023-04-07T06:53:54.090Z,6.68
2023-04-07T06:59:58.851Z,7.05
2023-04-07T07:06:02.485Z,6.95
2023-04-07T07:12:06.654Z,8.52
2023-04-07T07:18:11.493Z,6.38
2023-04-07T07:24:14.984Z,7.07
2023-04-07T07:30:18.429Z,6.80
2023-04-07T07:36:23.242Z,6.32
2023-04-07T07:42:27.170Z,6.75
2023-04-07T07:48:30.800Z,6.90
2023-04-07T07:54:35.657Z,6.75
2023-04-07T08:00:39.041Z,6.68
2023-04-07T08:06:42.912Z,6.75
2023-04-07T08:12:47.733Z,6.10
2023-04-07T08:18:51.834Z,6.75
2023-04-07T08:24:55.266Z,5.70
2023-04-07T08:31:00.324Z,4.32
2023-04-07T08:37:03.735Z,2.92
2023-04-07T08:43:10.662Z,2.15
2023-04-07T08:49:15.715Z,1.95
2023-04-07T08:55:19.403Z,1.50
2023-04-07T09:01:23.277Z,1.63
2023-04-07T09:07:28.347Z,1.20
2023-04-07T09:13:33.490Z,1.02
2023-04-07T09:19:37.048Z,1.17
2023-04-07T09:25:41.871Z,1.30
2023-04-07T09:31:46.841Z,1.50
2023-04-07T09:38:02.735Z,1.27
2023-04-07T09:44:07.617Z,1.40
2023-04-07T09:50:11.637Z,1.38
2023-04-07T09:56:16.295Z,1.60
2023-04-07T10:02:21.137Z,1.48
2023-04-07T10:08:24.901Z,0.85
2023-04-07T10:14:29.161Z,0.60
2023-04-07T10:20:34.123Z,0.77
2023-04-07T10:26:40.633Z,0.70
2023-04-07T10:32:48.448Z,0.90
2023-04-07T10:39:10.491Z,0.93
2023-04-07T10:45:15.842Z,1.20
2023-04-07T10:51:19.668Z,1.30
2023-04-07T10:57:23.756Z,1.50
2023-04-07T11:03:29.884Z,1.58
2023-04-07T11:09:33.793Z,1.52
2023-04-07T11:15:40.310Z,1.15
2023-04-07T11:21:47.127Z,1.23
2023-04-07T11:27:50.807Z,1.65
2023-04-07T11:33:55.653Z,1.20
2023-04-07T11:40:00.949Z,1.33
2023-04-07T11:46:08.651Z,1.15
2023-04-07T11:52:12.104Z,0.93
2023-04-07T11:58:16.989Z,1.00
2023-04-07T12:04:21.149Z,1.70
2023-04-07T12:10:26.725Z,1.23
2023-04-07T12:16:31.636Z,1.10
2023-04-07T12:22:35.110Z,1.30
2023-04-07T12:28:38.875Z,1.50
2023-04-07T12:34:44.057Z,1.00
2023-04-07T12:40:47.724Z,1.23
2023-04-07T12:46:51.517Z,1.27
2023-04-07T12:52:56.708Z,1.30
2023-04-07T12:59:00.144Z,1.50
2023-04-07T13:05:03.695Z,1.30
2023-04-07T13:11:08.725Z,1.30
2023-04-07T13:17:12.263Z,1.25
2023-04-07T13:23:15.785Z,1.90
2023-04-07T13:29:20.665Z,1.80
2023-04-07T13:35:24.093Z,1.20
2023-04-07T13:41:27.765Z,1.20
2023-04-07T13:47:34.706Z,1.60
2023-04-07T13:53:38.169Z,1.45
2023-04-07T13:59:41.610Z,1.02
2023-04-07T14:05:46.640Z,1.05
2023-04-07T14:11:50.126Z,1.17
2023-04-07T14:17:53.702Z,1.00
2023-04-07T14:23:58.640Z,1.13
2023-04-07T14:30:02.809Z,1.20
2023-04-07T14:36:06.508Z,1.33
2023-04-07T14:42:12.489Z,1.70
2023-04-07T14:48:17.184Z,1.63
2023-04-07T14:54:20.629Z,1.38
2023-04-07T15:00:26.190Z,1.25
2023-04-07T15:06:29.638Z,1.10
2023-04-07T15:12:33.470Z,1.10
2023-04-07T15:18:38.226Z,0.82
2023-04-07T15:24:41.617Z,1.10
2023-04-07T15:30:46.150Z,1.40
2023-04-07T15:36:53.139Z,0.90
2023-04-07T15:42:56.578Z,0.98
2023-04-07T15:49:00.137Z,1.50
2023-04-07T15:55:05.020Z,1.55
2023-04-07T16:01:08.450Z,1.92
2023-04-07T16:07:11.974Z,1.30
2023-04-07T16:13:16.940Z,1.20
2023-04-07T16:19:20.768Z,1.27
2023-04-07T16:25:24.212Z,1.65
2023-04-07T16:31:29.748Z,0.82
2023-04-07T16:37:33.209Z,1.23
2023-04-07T16:43:36.785Z,1.35
2023-04-07T16:49:41.577Z,1.35
2023-04-07T16:55:44.961Z,1.50
2023-04-07T17:01:48.469Z,1.08
2023-04-07T17:07:53.941Z,1.63
2023-04-07T17:13:58.813Z,1.33
2023-04-07T17:20:02.463Z,1.00
2023-04-07T17:26:07.328Z,0.98
2023-04-07T17:32:10.807Z,0.95
2023-04-07T17:38:14.390Z,0.90
2023-04-07T17:44:19.320Z,1.40
2023-04-07T17:50:22.885Z,1.90
2023-04-07T17:56:26.346Z,1.50
2023-04-07T18:02:31.324Z,1.60
2023-04-07T18:08:34.962Z,1.13
2023-04-07T18:14:38.652Z,1.30
2023-04-07T18:20:43.413Z,1.33
2023-04-07T18:26:46.971Z,1.92
2023-04-07T18:32:50.479Z,1.70
2023-04-07T18:38:55.601Z,1.63
2023-04-07T18:44:59.052Z,2.25
2023-04-07T18:51:02.455Z,2.03
2023-04-07T18:57:07.244Z,2.60
2023-04-07T19:03:10.905Z,2.25
2023-04-07T19:09:14.663Z,2.00
2023-04-07T19:15:19.533Z,3.42
2023-04-07T19:21:28.729Z,2.78
2023-04-07T19:27:32.514Z,2.67
2023-04-07T19:33:37.318Z,2.70
2023-04-07T19:39:44.906Z,2.67
2023-04-07T19:45:53.072Z,2.72
2023-04-07T19:51:57.924Z,2.70
2023-04-07T19:58:01.415Z,2.65
2023-04-07T20:04:05.047Z,2.42
2023-04-07T20:10:10.838Z,2.67
2023-04-07T20:16:14.414Z,3.07
2023-04-07T20:22:18.048Z,2.35
2023-04-07T20:28:23.020Z,3.00
2023-04-07T20:34:26.771Z,4.00
2023-04-07T20:40:31.749Z,2.83
2023-04-07T20:46:36.616Z,3.22
2023-04-07T20:52:43.489Z,3.15
2023-04-07T20:58:48.230Z,3.60
2023-04-07T21:04:53.141Z,2.97
2023-04-07T21:10:56.789Z,2.97
2023-04-07T21:17:00.235Z,3.20
2023-04-07T21:23:04.993Z,3.08
2023-04-07T21:29:08.466Z,3.08
2023-04-07T21:35:12.777Z,3.63
2023-04-07T21:41:17.564Z,2.70
2023-04-07T21:47:21.202Z,4.20
2023-04-07T21:53:24.614Z,3.47
2023-04-07T21:59:29.390Z,3.58
2023-04-07T22:05:32.795Z,4.07
2023-04-07T22:11:36.742Z,3.85
2023-04-07T22:17:41.761Z,4.30
2023-04-07T22:23:45.589Z,3.60
2023-04-07T22:29:49.133Z,4.22
2023-04-07T22:35:54.199Z,4.10
2023-04-07T22:41:57.594Z,4.10
2023-04-07T22:48:01.164Z,3.42
2023-04-07T22:54:06.190Z,4.03
2023-04-07T23:00:10.180Z,5.00
2023-04-07T23:06:13.655Z,4.47
2023-04-07T23:12:18.459Z,4.60
2023-04-07T23:18:21.836Z,5.20
2023-04-07T23:24:25.708Z,4.30
2023-04-07T23:30:30.556Z,4.30
2023-04-07T23:36:33.904Z,4.45
2023-04-07T23:42:37.859Z,4.88
2023-04-07T23:48:43.020Z,5.40
2023-04-07T23:54:46.434Z,5.18
